Time;durP1;ratioP1;P1;durP2;ratioP2;P2;SDS_P1;SDS_P2;PMS_P1;PMS_P2;Temp;Humidity;BMP_temperature;BMP_pressure;BME280_temperature;BME280_humidity;BME280_pressure;Samples;Min_cycle;Max_cycle;Signal;HPM_P1;HPM_P2
2023/04/20 00:01:42;;;;;;;28.90;4.10;;;;;;;11.06;100.00;100161.70;109623;1252;61935;-85
2023/04/20 00:04:09;;;;;;;31.40;5.00;;;;;;;11.10;100.00;100165.98;109541;1252;60523;-84
2023/04/20 00:06:36;;;;;;;19.40;4.60;;;;;;;11.14;100.00;100168.13;109657;1253;73542;-86
2023/04/20 00:09:03;;;;;;;25.70;5.00;;;;;;;11.22;100.00;100165.83;109683;1252;63838;-85
2023/04/20 00:11:30;;;;;;;25.80;4.00;;;;;;;11.27;100.00;100165.51;109626;1253;72492;-85
2023/04/20 00:13:57;;;;;;;23.70;4.70;;;;;;;11.27;100.00;100159.36;109500;1253;60132;-86
2023/04/20 00:16:24;;;;;;;23.30;4.60;;;;;;;11.25;100.00;100157.20;109592;1252;60237;-85
2023/04/20 00:18:51;;;;;;;24.80;4.00;;;;;;;11.23;100.00;100151.77;107640;1252;73963;-87
2023/04/20 00:21:22;;;;;;;24.50;4.50;;;;;;;11.16;100.00;100144.57;109239;1253;63371;-85
2023/04/20 00:23:50;;;;;;;22.40;4.80;;;;;;;11.07;100.00;100144.67;107540;1256;72431;-86
2023/04/20 00:26:17;;;;;;;17.60;4.80;;;;;;;11.03;100.00;100140.06;106098;1253;63075;-86
2023/04/20 00:28:44;;;;;;;18.90;4.00;;;;;;;10.98;100.00;100131.98;106195;1253;61288;-86
2023/04/20 00:31:11;;;;;;;22.50;5.20;;;;;;;10.95;100.00;100132.16;107670;1253;73917;-86
2023/04/20 00:33:38;;;;;;;17.70;4.60;;;;;;;10.98;100.00;100135.27;106892;1255;64213;-87
2023/04/20 00:36:07;;;;;;;17.70;5.20;;;;;;;11.00;100.00;100140.95;106471;1253;72597;-86
2023/04/20 00:38:35;;;;;;;21.00;4.70;;;;;;;10.99;100.00;100148.02;106020;1253;61418;-85
2023/04/20 00:41:02;;;;;;;21.30;5.20;;;;;;;10.97;100.00;100148.29;106000;1253;61142;-87
2023/04/20 00:43:31;;;;;;;17.80;5.10;;;;;;;10.98;100.00;100145.81;106388;1252;74803;-88
2023/04/20 00:45:58;;;;;;;18.40;5.00;;;;;;;10.99;100.00;100141.55;107579;1253;64814;-84
2023/04/20 00:48:25;;;;;;;23.30;5.90;;;;;;;11.03;100.00;100136.88;107759;1252;72577;-83
2023/04/20 00:50:52;;;;;;;22.60;5.70;;;;;;;11.05;100.00;100135.71;106111;1256;62007;-87
2023/04/20 00:53:19;;;;;;;22.70;4.60;;;;;;;11.04;100.00;100137.19;105917;1254;61713;-88
2023/04/20 00:55:46;;;;;;;27.40;6.20;;;;;;;11.02;100.00;100142.02;105958;1258;74208;-87
2023/04/20 00:58:13;;;;;;;29.70;4.80;;;;;;;11.01;100.00;100140.55;106026;1254;65390;-90
2023/04/20 01:00:39;;;;;;;25.60;5.20;;;;;;;11.00;100.00;100136.90;106119;1253;74042;-86
2023/04/20 01:03:07;;;;;;;20.40;3.80;;;;;;;11.00;100.00;100131.14;106736;1253;61951;-85
2023/04/20 01:05:34;;;;;;;16.30;4.40;;;;;;;11.04;100.00;100131.23;106569;1257;60451;-86
2023/04/20 01:08:01;;;;;;;20.20;4.50;;;;;;;11.11;100.00;100128.09;106232;1258;74716;-85
2023/04/20 01:10:29;;;;;;;22.60;4.90;;;;;;;11.19;100.00;100126.67;106074;1258;65067;-87
2023/04/20 01:12:57;;;;;;;26.70;7.00;;;;;;;11.26;100.00;100121.48;106294;1258;73669;-84
2023/04/20 01:15:25;;;;;;;17.50;5.40;;;;;;;11.33;100.00;100125.67;106561;1253;61231;-86
2023/04/20 01:17:52;;;;;;;17.30;5.00;;;;;;;11.37;100.00;100127.34;106336;1253;61244;-86
2023/04/20 01:20:19;;;;;;;15.80;5.30;;;;;;;11.39;100.00;100125.45;106447;1253;72991;-85
2023/04/20 01:22:50;;;;;;;22.80;6.10;;;;;;;11.38;100.00;100121.11;108055;1252;65076;-85
2023/04/20 01:25:17;;;;;;;31.50;6.30;;;;;;;11.36;100.00;100122.87;108962;1252;72615;-84
2023/04/20 01:27:47;;;;;;;20.30;5.60;;;;;;;11.34;100.00;100117.59;109494;1252;61903;-85
2023/04/20 01:30:15;;;;;;;26.90;5.10;;;;;;;11.32;100.00;100102.66;109576;1253;60009;-86
2023/04/20 01:32:43;;;;;;;21.10;6.00;;;;;;;11.32;100.00;100097.27;109601;1253;73736;-85
2023/04/20 01:35:10;;;;;;;23.90;6.50;;;;;;;11.36;100.00;100092.06;109702;1252;63888;-85
2023/04/20 01:37:38;;;;;;;19.60;5.10;;;;;;;11.43;100.00;100081.55;109404;1252;72257;-85
2023/04/20 01:40:08;;;;;;;27.40;8.40;;;;;;;11.52;100.00;100070.40;109600;1253;60203;-86
2023/04/20 01:42:36;;;;;;;21.40;6.90;;;;;;;11.59;100.00;100070.73;109626;1253;60148;-87
2023/04/20 01:45:05;;;;;;;23.10;6.60;;;;;;;11.65;100.00;100067.02;109584;1252;73769;-85
2023/04/20 01:47:32;;;;;;;19.90;4.50;;;;;;;11.69;100.00;100070.08;108849;1253;62683;-84
2023/04/20 01:49:59;;;;;;;26.00;4.50;;;;;;;11.72;100.00;100062.81;106491;1254;72645;-87
2023/04/20 01:52:26;;;;;;;23.60;5.80;;;;;;;11.72;100.00;100057.23;106807;1253;61721;-88
2023/04/20 01:54:53;;;;;;;19.80;5.40;;;;;;;11.72;100.00;100055.98;106236;1253;60803;-86
2023/04/20 01:57:20;;;;;;;19.70;6.10;;;;;;;11.70;100.00;100058.94;106133;1257;75290;-89
2023/04/20 01:59:47;;;;;;;24.90;6.70;;;;;;;11.66;100.00;100058.52;107429;1252;64810;-85
2023/04/20 02:02:14;;;;;;;20.60;6.60;;;;;;;11.63;100.00;100058.44;107320;1252;72876;-87
2023/04/20 02:04:41;;;;;;;28.20;7.50;;;;;;;11.65;100.00;100063.90;106297;1253;62556;-85
2023/04/20 02:07:08;;;;;;;31.70;9.30;;;;;;;11.64;100.00;100058.34;106409;1258;60824;-86
2023/04/20 02:09:37;;;;;;;28.80;9.00;;;;;;;11.66;100.00;100056.81;105968;1253;74737;-87
2023/04/20 02:12:04;;;;;;;27.70;9.30;;;;;;;11.68;100.00;100054.55;105946;1257;64861;-86
2023/04/20 02:14:31;;;;;;;39.00;10.70;;;;;;;11.69;100.00;100049.42;105995;1253;73650;-88
2023/04/20 02:16:59;;;;;;;33.90;11.60;;;;;;;11.67;100.00;100056.00;106048;1253;60493;-86
2023/04/20 02:19:26;;;;;;;29.60;11.60;;;;;;;11.66;100.00;100072.73;105971;1256;60645;-86
2023/04/20 02:21:54;;;;;;;37.40;15.50;;;;;;;11.63;100.00;100080.30;106097;1252;75582;-87
2023/04/20 02:24:21;;;;;;;42.70;15.20;;;;;;;11.59;100.00;100080.38;106875;1253;63637;-86
2023/04/20 02:26:48;;;;;;;51.40;14.20;;;;;;;11.54;100.00;100074.84;107057;1254;72442;-88
2023/04/20 02:29:15;;;;;;;37.50;13.90;;;;;;;11.49;100.00;100068.67;106002;1253;63211;-87
2023/04/20 02:31:43;;;;;;;43.10;13.60;;;;;;;11.45;100.00;100059.55;105901;1253;61292;-89
2023/04/20 02:34:10;;;;;;;42.30;14.30;;;;;;;11.40;100.00;100051.48;106106;1253;73811;-89
2023/04/20 02:36:37;;;;;;;59.00;17.60;;;;;;;11.39;100.00;100045.23;106033;1253;63607;-85
2023/04/20 02:39:04;;;;;;;43.70;14.60;;;;;;;11.40;100.00;100032.92;106683;1253;74272;-86
2023/04/20 02:41:33;;;;;;;49.40;16.10;;;;;;;11.39;100.00;100024.93;107029;1253;61958;-84
2023/04/20 02:44:02;;;;;;;43.50;15.00;;;;;;;11.37;100.00;100013.23;106865;1252;61532;-86
2023/04/20 02:46:31;;;;;;;47.90;17.60;;;;;;;11.38;100.00;100000.73;107658;1255;73593;-85
2023/04/20 02:48:58;;;;;;;34.20;15.70;;;;;;;11.39;100.00;100002.92;106150;1253;64594;-86
2023/04/20 02:51:25;;;;;;;36.70;16.00;;;;;;;11.36;100.00;100009.05;106190;1253;73366;-86
2023/04/20 02:53:53;;;;;;;44.50;16.40;;;;;;;11.34;100.00;100007.42;106031;1253;61877;-88
2023/04/20 02:56:30;;;;;;;40.40;15.50;;;;;;;11.33;100.00;100009.34;106140;1252;60334;-86
2023/04/20 02:59:00;;;;;;;49.80;16.00;;;;;;;11.36;100.00;100017.12;106095;1257;75137;-87
2023/04/20 03:02:06;;;;;;;44.00;14.20;;;;;;;11.44;100.00;100020.96;106042;1253;64000;-85
2023/04/20 03:04:36;;;;;;;40.70;14.10;;;;;;;11.52;100.00;100023.36;106385;1253;74371;-87
2023/04/20 03:07:12;;;;;;;34.70;14.90;;;;;;;11.55;100.00;100027.84;106053;1253;60883;-86
2023/04/20 03:09:42;;;;;;;41.40;14.80;;;;;;;11.58;100.00;100026.36;106324;1255;61187;-84
2023/04/20 03:12:22;;;;;;;43.50;13.90;;;;;;;11.60;100.00;100024.33;106174;1256;74693;-86
2023/04/20 03:14:57;;;;;;;46.00;17.70;;;;;;;11.58;100.00;100027.02;106018;1253;63841;-85
2023/04/20 03:17:35;;;;;;;42.60;15.10;;;;;;;11.60;100.00;100027.29;105952;1253;73670;-85
2023/04/20 03:20:03;;;;;;;33.20;15.80;;;;;;;11.63;100.00;100023.73;105908;1258;63573;-85
2023/04/20 03:22:31;;;;;;;40.80;14.30;;;;;;;11.67;100.00;100023.65;106383;1253;61769;-88
2023/04/20 03:25:00;;;;;;;37.00;15.50;;;;;;;11.66;100.00;100024.23;109250;1252;74871;-84
2023/04/20 03:27:47;;;;;;;39.70;16.00;;;;;;;11.61;100.00;100020.75;106643;1252;65000;-85
2023/04/20 03:30:14;;;;;;;42.90;14.30;;;;;;;11.56;100.00;100018.63;106229;1253;72668;-86
2023/04/20 03:32:41;;;;;;;42.90;15.10;;;;;;;11.56;100.00;100015.33;106151;1253;62952;-86
2023/04/20 03:35:09;;;;;;;44.40;14.20;;;;;;;11.54;100.00;100013.91;105880;1254;60086;-86
2023/04/20 03:37:37;;;;;;;40.80;16.00;;;;;;;11.54;100.00;100012.70;105855;1259;74695;-86
2023/04/20 03:40:09;;;;;;;47.70;15.00;;;;;;;11.57;100.00;100012.13;105969;1253;64854;-88
2023/04/20 03:42:36;;;;;;;41.50;14.60;;;;;;;11.59;100.00;100009.64;107128;1253;74264;-85
2023/04/20 03:45:05;;;;;;;45.70;14.60;;;;;;;11.65;100.00;100012.38;107044;1253;63149;-86
2023/04/20 03:47:32;;;;;;;38.60;13.10;;;;;;;11.74;100.00;100017.89;106504;1258;62176;-84
2023/04/20 03:49:59;;;;;;;39.50;14.50;;;;;;;11.80;100.00;100020.21;106269;1257;75657;-86
2023/04/20 03:52:27;;;;;;;35.10;13.30;;;;;;;11.88;100.00;100026.83;107322;1255;64837;-84
2023/04/20 03:54:55;;;;;;;40.70;14.60;;;;;;;11.94;100.00;100027.27;107330;1253;72957;-85
2023/04/20 03:57:22;;;;;;;36.60;13.60;;;;;;;11.95;100.00;100029.81;106998;1256;64019;-87
2023/04/20 03:59:49;;;;;;;26.40;13.70;;;;;;;11.94;100.00;100032.13;106923;1258;60569;-84
2023/04/20 04:02:18;;;;;;;37.40;13.80;;;;;;;11.90;100.00;100030.84;107300;1252;73771;-85
2023/04/20 04:04:46;;;;;;;22.10;13.00;;;;;;;11.84;100.00;100029.73;107073;1256;64931;-85
2023/04/20 04:07:14;;;;;;;26.10;13.80;;;;;;;11.78;100.00;100025.42;105969;1258;73920;-86
2023/04/20 04:09:41;;;;;;;35.90;14.10;;;;;;;11.76;100.00;100027.48;106091;1252;62849;-85
2023/04/20 04:12:08;;;;;;;31.10;14.00;;;;;;;11.76;100.00;100024.36;106010;1258;60371;-88
2023/04/20 04:14:36;;;;;;;26.90;13.10;;;;;;;11.73;100.00;100024.59;106455;1253;73805;-87
2023/04/20 04:17:03;;;;;;;31.50;14.00;;;;;;;11.71;100.00;100025.95;106047;1257;63803;-87
2023/04/20 04:19:32;;;;;;;25.40;12.60;;;;;;;11.71;100.00;100024.90;106377;1253;73365;-85
2023/04/20 04:21:59;;;;;;;27.00;13.40;;;;;;;11.68;100.00;100027.77;106015;1254;61997;-86
2023/04/20 04:24:26;;;;;;;26.90;13.20;;;;;;;11.61;100.00;100029.64;106020;1253;61744;-88
2023/04/20 04:27:04;;;;;;;23.70;14.90;;;;;;;11.53;100.00;100023.95;106027;1258;74497;-87
2023/04/20 04:29:40;;;;;;;28.10;14.30;;;;;;;11.46;100.00;100025.84;106755;1252;64059;-85
2023/04/20 04:32:38;;;;;;;26.60;14.90;;;;;;;11.44;100.00;100024.10;106778;1258;72706;-88
2023/04/20 04:35:33;;;;;;;36.10;16.50;;;;;;;11.44;100.00;100026.54;106693;1253;62754;-86
2023/04/20 04:38:23;;;;;;;31.20;16.80;;;;;;;11.46;100.00;100023.28;108713;1252;61339;-85
2023/04/20 04:40:51;;;;;;;28.60;14.60;;;;;;;11.49;100.00;100022.88;107298;1253;74132;-84
2023/04/20 04:43:19;;;;;;;31.20;16.00;;;;;;;11.53;100.00;100026.59;106706;1257;64535;-86
2023/04/20 04:45:54;;;;;;;27.60;16.20;;;;;;;11.53;100.00;100026.98;106785;1254;72481;-86
2023/04/20 04:48:22;;;;;;;26.40;15.10;;;;;;;11.52;100.00;100027.33;106937;1253;62044;-89
2023/04/20 04:50:48;;;;;;;26.70;17.50;;;;;;;11.54;100.00;100028.73;106337;1253;61080;-86
2023/04/20 04:53:16;;;;;;;27.30;16.00;;;;;;;11.54;100.00;100023.65;106372;1253;73826;-87
2023/04/20 04:55:46;;;;;;;27.80;15.50;;;;;;;11.55;100.00;100020.45;106221;1255;64330;-88
2023/04/20 04:58:15;;;;;;;29.30;15.60;;;;;;;11.58;100.00;100022.34;106174;1253;73493;-88
2023/04/20 05:00:42;;;;;;;27.60;15.30;;;;;;;11.64;100.00;100017.53;106226;1253;62113;-85
2023/04/20 05:03:10;;;;;;;28.70;13.40;;;;;;;11.67;100.00;100020.81;107704;1253;61236;-85
2023/04/20 05:05:37;;;;;;;23.70;12.70;;;;;;;11.67;100.00;100020.83;107314;1253;74964;-87
2023/04/20 05:08:04;;;;;;;20.70;11.60;;;;;;;11.67;100.00;100021.34;106604;1257;63843;-87
2023/04/20 05:10:32;;;;;;;29.10;12.90;;;;;;;11.65;100.00;100021.85;106615;1253;72466;-87
2023/04/20 05:12:59;;;;;;;25.90;10.50;;;;;;;11.59;100.00;100025.56;106267;1253;63461;-87
2023/04/20 05:15:26;;;;;;;27.40;11.10;;;;;;;11.54;100.00;100025.27;106328;1257;61122;-84
2023/04/20 05:17:53;;;;;;;21.40;9.70;;;;;;;11.53;100.00;100027.30;106398;1257;74507;-89
2023/04/20 05:20:21;;;;;;;19.20;9.20;;;;;;;11.52;100.00;100027.89;106706;1253;63701;-87
2023/04/20 05:22:48;;;;;;;20.30;9.30;;;;;;;11.51;100.00;100030.23;106625;1255;72591;-88
2023/04/20 05:25:15;;;;;;;20.50;8.60;;;;;;;11.52;100.00;100028.77;106635;1253;62931;-87
2023/04/20 05:27:42;;;;;;;16.90;9.30;;;;;;;11.49;100.00;100031.41;106435;1253;61447;-88
2023/04/20 05:30:09;;;;;;;14.70;9.00;;;;;;;11.50;100.00;100036.04;106311;1253;74417;-87
2023/04/20 05:32:48;;;;;;;18.20;8.80;;;;;;;11.46;100.00;100031.96;106567;1253;64364;-88
2023/04/20 05:35:21;;;;;;;17.80;9.60;;;;;;;11.43;100.00;100031.31;107754;1253;72610;-89
2023/04/20 05:37:50;;;;;;;13.70;9.50;;;;;;;11.43;100.00;100031.48;107661;1253;61740;-90
2023/04/20 05:40:17;;;;;;;22.10;9.20;;;;;;;11.45;100.00;100028.77;107724;1253;60563;-89
2023/04/20 05:42:48;;;;;;;26.90;10.60;;;;;;;11.47;100.00;100026.34;107311;1253;73815;-88
2023/04/20 05:45:15;;;;;;;38.40;16.80;;;;;;;11.46;100.00;100027.27;107181;1253;63683;-88
2023/04/20 05:47:52;;;;;;;30.50;11.70;;;;;;;11.44;100.00;100026.54;107546;1252;72669;-88
2023/04/20 05:50:19;;;;;;;29.50;11.00;;;;;;;11.46;100.00;100031.30;107558;1258;62638;-87
2023/04/20 05:52:47;;;;;;;33.50;10.00;;;;;;;11.46;100.00;100029.69;108371;1253;60301;-89
2023/04/20 05:55:47;;;;;;;24.00;10.10;;;;;;;11.46;100.00;100033.55;107917;1257;73052;-86
2023/04/20 05:58:15;;;;;;;29.30;10.00;;;;;;;11.48;100.00;100038.17;103310;1257;7062493;-89
2023/04/20 06:02:16;;;;;;;36.20;11.00;;;;;;;11.47;100.00;100043.12;105196;1292;613072;-90
2023/04/20 06:04:43;;;;;;;31.70;12.00;;;;;;;11.40;100.00;100041.55;107298;1263;61962;-91
2023/04/20 06:07:11;;;;;;;25.00;11.20;;;;;;;11.35;100.00;100042.42;107679;1263;61177;-88
2023/04/20 06:09:39;;;;;;;26.20;10.30;;;;;;;11.32;100.00;100044.91;107500;1261;72176;-91
2023/04/20 06:12:08;;;;;;;44.00;22.30;;;;;;;11.30;100.00;100044.68;108155;1257;64923;-92
2023/04/20 06:14:36;;;;;;;28.40;12.90;;;;;;;11.33;100.00;100045.16;108579;1253;574870;-92
2023/04/20 06:17:04;;;;;;;36.20;16.10;;;;;;;11.40;100.00;100043.23;109573;1253;61763;-92
2023/04/20 06:19:33;;;;;;;28.80;13.40;;;;;;;11.46;100.00;100046.52;109635;1257;60240;-93
2023/04/20 06:22:07;;;;;;;37.10;14.50;;;;;;;11.50;100.00;100050.77;109276;1253;72161;-90
2023/04/20 06:24:35;;;;;;;29.60;12.80;;;;;;;11.47;100.00;100050.13;109432;1253;63875;-95
2023/04/20 06:27:04;;;;;;;34.30;13.70;;;;;;;11.43;100.00;100046.57;108818;1254;72339;-93
2023/04/20 06:29:36;;;;;;;28.80;12.20;;;;;;;11.41;100.00;100047.54;108163;1254;62713;-92
2023/04/20 06:32:11;;;;;;;28.40;13.40;;;;;;;11.40;100.00;100046.94;108417;1253;60302;-90
2023/04/20 06:34:42;;;;;;;29.20;11.50;;;;;;;11.39;100.00;100044.38;108199;1253;72725;-91
2023/04/20 06:37:23;;;;;;;31.60;11.80;;;;;;;11.37;100.00;100043.16;107324;1253;63507;-88
2023/04/20 06:40:09;;;;;;;25.20;11.10;;;;;;;11.34;100.00;100041.91;107145;1253;73648;-92
2023/04/20 06:42:38;;;;;;;31.30;10.50;;;;;;;11.33;100.00;100040.95;107294;1253;61443;-94
2023/04/20 06:45:06;;;;;;;35.20;12.50;;;;;;;11.32;100.00;100037.90;106917;1253;61152;-92
2023/04/20 06:47:34;;;;;;;26.00;8.80;;;;;;;11.33;100.00;100041.55;107076;1258;72933;-93
2023/04/20 06:50:05;;;;;;;29.30;11.70;;;;;;;11.33;100.00;100038.20;107492;1253;65546;-90
2023/04/20 06:52:37;;;;;;;31.00;9.00;;;;;;;11.34;100.00;100043.40;107699;1253;71443;-91
2023/04/20 06:55:04;;;;;;;26.50;11.60;;;;;;;11.33;100.00;100044.48;108641;1254;61842;-91
2023/04/20 06:57:33;;;;;;;40.30;11.00;;;;;;;11.27;100.00;100041.05;108782;1253;59768;-87
2023/04/20 07:00:00;;;;;;;24.60;10.90;;;;;;;11.27;100.00;100046.88;108572;1253;74047;-91
2023/04/20 07:02:27;;;;;;;25.50;8.50;;;;;;;11.26;100.00;100042.19;107104;1258;62320;-89
2023/04/20 07:05:00;;;;;;;20.60;8.80;;;;;;;11.25;100.00;100038.25;106931;1258;72653;-90
2023/04/20 07:07:28;;;;;;;24.60;9.80;;;;;;;11.23;100.00;100037.33;107152;1253;61962;-90
2023/04/20 07:10:00;;;;;;;32.70;9.20;;;;;;;11.24;100.00;100040.06;106485;1254;59618;-89
2023/04/20 07:12:31;;;;;;;23.10;9.30;;;;;;;11.25;100.00;100035.77;106601;1256;74620;-91
2023/04/20 07:14:58;;;;;;;37.50;11.00;;;;;;;11.26;100.00;100036.26;107306;1256;62948;-90
2023/04/20 07:17:28;;;;;;;24.10;10.60;;;;;;;11.24;100.00;100028.31;107782;1256;72830;-87
2023/04/20 07:19:56;;;;;;;27.40;11.20;;;;;;;11.27;100.00;100033.55;107954;1256;62685;-90
2023/04/20 07:22:24;;;;;;;29.00;12.30;;;;;;;11.24;100.00;100034.63;107006;1257;60122;-91
2023/04/20 07:24:51;;;;;;;23.70;10.60;;;;;;;11.26;100.00;100035.52;107603;1257;73680;-88
2023/04/20 07:27:19;;;;;;;23.40;11.10;;;;;;;11.29;100.00;100028.69;106999;1256;63797;-90
2023/04/20 18:25:07;;;;;;;19.40;8.70;;;;;;;10.32;100.00;100067.46;108045;1276;60735;-88
2023/04/20 18:29:08;;;;;;;18.50;8.60;;;;;;;10.28;100.00;100060.20;106527;1289;59622;-88
2023/04/20 18:32:27;;;;;;;18.50;8.10;;;;;;;10.30;100.00;100058.01;106056;1289;626855;-89
2023/04/20 18:34:59;;;;;;;21.20;9.00;;;;;;;10.32;100.00;100061.70;106581;1289;64082;-87
2023/04/20 18:37:27;;;;;;;25.30;8.70;;;;;;;10.30;100.00;100065.15;106314;1289;73113;-89
2023/04/20 18:39:54;;;;;;;26.80;10.70;;;;;;;10.22;100.00;100064.61;106481;1289;60816;-87
2023/04/20 18:42:22;;;;;;;25.80;10.80;;;;;;;10.13;100.00;100060.98;105739;1289;60367;-87
2023/04/20 18:44:51;;;;;;;26.80;11.40;;;;;;;10.11;100.00;100063.09;104419;1290;71035;-87
2023/04/20 18:47:39;;;;;;;38.20;12.10;;;;;;;10.04;100.00;100056.52;104380;1289;66414;-88
2023/04/20 18:50:06;;;;;;;34.30;11.10;;;;;;;10.04;100.00;100052.06;103893;1289;73497;-89
2023/04/20 18:52:35;;;;;;;28.90;11.00;;;;;;;10.04;100.00;100057.23;103800;1285;62383;-90
2023/04/20 18:55:02;;;;;;;33.90;9.80;;;;;;;10.06;100.00;100057.32;104645;1274;60412;-89
2023/04/20 18:57:31;;;;;;;31.00;9.00;;;;;;;10.09;100.00;100057.42;105184;1274;74185;-88
2023/04/20 18:59:59;;;;;;;34.00;10.80;;;;;;;10.11;100.00;100057.84;105878;1272;65260;-89
2023/04/20 19:02:27;;;;;;;36.70;10.10;;;;;;;10.10;100.00;100058.80;105249;1269;73695;-90
2023/04/20 19:04:55;;;;;;;40.00;11.90;;;;;;;10.06;100.00;100056.57;105841;1262;61096;-88
2023/04/20 19:07:22;;;;;;;32.50;10.50;;;;;;;10.01;100.00;100056.77;106045;1257;61385;-89
2023/04/20 19:09:49;;;;;;;49.50;10.80;;;;;;;9.94;100.00;100052.81;106164;1260;74589;-86
2023/04/20 19:12:16;;;;;;;33.70;12.60;;;;;;;9.90;100.00;100053.09;106570;1256;64796;-87
2023/04/20 19:14:45;;;;;;;34.90;10.50;;;;;;;9.89;100.00;100050.73;107007;1255;71960;-89
2023/04/20 19:17:16;;;;;;;34.90;11.70;;;;;;;9.85;100.00;100051.54;106264;1257;62059;-87
2023/04/20 19:19:44;;;;;;;42.00;12.70;;;;;;;9.81;100.00;100050.42;106491;1256;60357;-86
2023/04/20 19:22:11;;;;;;;49.50;14.50;;;;;;;9.83;100.00;100045.54;106227;1253;73395;-88
2023/04/20 19:24:39;;;;;;;29.50;11.60;;;;;;;9.89;100.00;100039.38;106579;1259;62479;-89
2023/04/20 19:27:07;;;;;;;44.60;12.20;;;;;;;9.91;100.00;100037.98;106478;1254;72556;-88
2023/04/20 19:29:35;;;;;;;52.80;13.20;;;;;;;9.90;100.00;100038.05;106422;1253;60284;-88
2023/04/20 19:32:02;;;;;;;55.80;15.50;;;;;;;9.88;100.00;100040.81;106488;1254;60430;-87
2023/04/20 19:34:31;;;;;;;55.60;14.20;;;;;;;9.90;100.00;100045.81;106467;1256;73916;-87
2023/04/20 19:36:59;;;;;;;42.20;13.70;;;;;;;9.92;100.00;100046.91;106635;1253;64871;-88
2023/04/20 19:39:27;;;;;;;52.70;15.20;;;;;;;9.88;100.00;100044.20;106845;1253;72600;-86
2023/04/20 19:41:55;;;;;;;41.70;15.00;;;;;;;9.83;100.00;100039.98;108636;1253;62875;-87
2023/04/20 19:44:22;;;;;;;39.30;11.90;;;;;;;9.81;100.00;100037.31;109513;1252;60092;-86
2023/04/20 19:46:49;;;;;;;38.50;11.70;;;;;;;9.79;100.00;100036.73;109642;1253;72733;-88
2023/04/20 19:49:18;;;;;;;39.50;11.90;;;;;;;9.77;100.00;100040.52;109655;1253;64164;-86
2023/04/20 19:51:46;;;;;;;49.70;12.50;;;;;;;9.79;100.00;100039.88;109643;1253;72576;-86
2023/04/20 19:54:16;;;;;;;50.10;11.50;;;;;;;9.82;100.00;100036.58;109575;1253;60313;-89
2023/04/20 19:56:43;;;;;;;43.70;10.60;;;;;;;9.83;100.00;100041.38;109613;1252;60476;-88
2023/04/20 19:59:10;;;;;;;53.20;12.40;;;;;;;9.83;100.00;100038.55;109586;1253;72969;-86
2023/04/20 20:01:37;;;;;;;41.10;10.80;;;;;;;9.83;100.00;100044.17;109665;1253;64178;-88
2023/04/20 20:04:04;;;;;;;37.20;11.30;;;;;;;9.83;100.00;100045.88;109624;1253;72770;-87
2023/04/20 20:06:32;;;;;;;34.20;11.30;;;;;;;9.85;100.00;100044.05;109574;1253;61995;-86
2023/04/20 20:08:59;;;;;;;40.80;10.80;;;;;;;9.87;100.00;100036.07;107246;1253;61157;-90
2023/04/20 20:11:27;;;;;;;34.90;10.60;;;;;;;9.91;100.00;100035.77;106487;1253;74023;-89
2023/04/20 20:13:54;;;;;;;33.10;9.50;;;;;;;9.91;100.00;100035.91;106433;1252;63087;-88
2023/04/20 20:16:21;;;;;;;30.80;9.40;;;;;;;9.88;100.00;100036.67;106761;1253;74538;-85
2023/04/20 20:18:49;;;;;;;38.40;10.90;;;;;;;9.82;100.00;100035.47;107594;1255;59384;-85
2023/04/20 20:21:16;;;;;;;37.40;9.60;;;;;;;9.78;100.00;100032.06;107736;1253;60389;-88
2023/04/20 20:23:44;;;;;;;33.40;9.20;;;;;;;9.74;100.00;100037.61;106239;1257;74720;-85
2023/04/20 20:26:11;;;;;;;25.70;9.90;;;;;;;9.70;100.00;100033.64;106136;1256;63996;-89
2023/04/20 20:28:38;;;;;;;39.10;9.10;;;;;;;9.70;100.00;100034.88;105834;1253;74305;-86
2023/04/20 20:31:04;;;;;;;19.90;9.10;;;;;;;9.72;100.00;100030.25;105868;1252;62981;-88
2023/04/20 20:33:32;;;;;;;22.80;9.00;;;;;;;9.74;100.00;100027.13;106659;1258;61382;-85
2023/04/20 20:36:00;;;;;;;38.00;8.10;;;;;;;9.76;100.00;100030.63;106474;1253;73937;-84
2023/04/20 20:38:29;;;;;;;30.30;8.30;;;;;;;9.80;100.00;100027.25;106299;1256;63700;-88
2023/04/20 20:40:57;;;;;;;32.20;9.90;;;;;;;9.82;100.00;100026.08;105969;1257;73717;-87
2023/04/20 20:43:24;;;;;;;32.10;7.20;;;;;;;9.85;100.00;100026.20;105861;1258;61396;-87
2023/04/20 20:45:51;;;;;;;24.50;8.90;;;;;;;9.90;100.00;100023.98;106101;1257;60097;-86
2023/04/20 20:48:18;;;;;;;24.50;8.40;;;;;;;9.89;100.00;100026.27;106167;1257;74586;-86
2023/04/20 20:50:45;;;;;;;17.40;8.50;;;;;;;9.91;100.00;100023.40;106038;1253;63737;-87
2023/04/20 20:53:12;;;;;;;26.80;8.30;;;;;;;9.91;100.00;100020.75;106131;1253;74281;-89
2023/04/20 20:55:39;;;;;;;26.80;8.20;;;;;;;9.91;100.00;100020.25;106908;1253;63044;-86
2023/04/20 20:58:06;;;;;;;29.10;9.50;;;;;;;9.92;100.00;100014.56;106687;1255;60900;-85
2023/04/20 21:00:34;;;;;;;27.70;8.20;;;;;;;9.94;100.00;100016.84;106655;1253;74099;-85
2023/04/20 21:03:01;;;;;;;26.80;9.20;;;;;;;9.96;100.00;100016.20;106922;1257;64908;-85
2023/04/20 21:05:28;;;;;;;26.10;8.40;;;;;;;9.93;100.00;100015.88;107058;1253;71377;-86
2023/04/20 21:07:55;;;;;;;26.70;9.10;;;;;;;9.89;100.00;100005.85;106414;1257;63014;-87
2023/04/20 21:10:24;;;;;;;25.10;7.20;;;;;;;9.89;100.00;100006.92;106095;1258;60440;-88
2023/04/20 21:12:51;;;;;;;18.70;8.30;;;;;;;9.89;100.00;100004.31;105934;1256;74021;-87
2023/04/20 21:15:20;;;;;;;28.90;7.70;;;;;;;9.91;100.00;100004.99;105979;1255;64879;-87
2023/04/20 21:17:47;;;;;;;23.90;7.90;;;;;;;9.94;100.00;99999.79;105927;1258;74236;-86
2023/04/20 21:20:14;;;;;;;26.50;6.60;;;;;;;9.92;100.00;99993.60;105878;1256;63639;-85
2023/04/20 21:22:41;;;;;;;31.90;8.00;;;;;;;9.91;100.00;99993.02;106027;1253;59934;-88
2023/04/20 21:25:08;;;;;;;22.80;7.60;;;;;;;9.90;100.00;99990.06;105927;1259;73008;-87
2023/04/20 21:27:35;;;;;;;26.50;7.60;;;;;;;9.93;100.00;99992.50;106003;1256;64284;-87
2023/04/20 21:30:03;;;;;;;19.10;7.20;;;;;;;9.92;100.00;99988.58;105981;1257;72588;-87
2023/04/20 21:32:58;;;;;;;23.90;8.60;;;;;;;9.92;100.00;99987.52;105952;1256;61187;-87
2023/04/20 21:35:25;;;;;;;22.80;6.90;;;;;;;9.93;100.00;99986.93;105873;1257;61815;-87
2023/04/20 21:37:52;;;;;;;19.60;6.30;;;;;;;9.92;100.00;99985.74;105991;1257;72842;-87
2023/04/20 21:40:19;;;;;;;25.00;9.20;;;;;;;9.94;100.00;99987.19;106190;1258;63802;-85
2023/04/20 21:42:48;;;;;;;21.70;6.90;;;;;;;9.98;100.00;99985.88;106291;1256;73674;-87
2023/04/20 21:45:14;;;;;;;21.70;7.50;;;;;;;10.04;100.00;99983.77;105949;1264;60278;-85
2023/04/20 21:47:41;;;;;;;26.00;7.90;;;;;;;10.10;100.00;99979.32;105962;1253;61034;-87
2023/04/20 21:50:09;;;;;;;20.20;7.50;;;;;;;10.14;100.00;99982.55;105991;1253;72915;-87
2023/04/20 21:52:36;;;;;;;21.60;7.80;;;;;;;10.10;100.00;99979.14;106081;1256;64541;-87
2023/04/20 21:55:03;;;;;;;24.90;8.40;;;;;;;10.05;100.00;99980.36;106047;1257;73658;-87
2023/04/20 21:57:31;;;;;;;25.90;8.40;;;;;;;10.02;100.00;99979.67;106105;1253;62708;-84
2023/04/20 21:59:58;;;;;;;21.30;6.80;;;;;;;10.00;100.00;99971.40;106109;1254;59948;-85
2023/04/20 22:02:25;;;;;;;18.80;6.60;;;;;;;10.02;100.00;99969.23;108729;1254;72799;-85
2023/04/20 22:04:52;;;;;;;20.90;5.80;;;;;;;10.03;100.00;99970.56;106967;1257;63661;-85
2023/04/20 22:07:20;;;;;;;30.00;6.90;;;;;;;9.98;100.00;99965.10;106204;1257;72823;-89